createdAt,value
2023-05-05T00:04:29.536Z,3.00
2023-05-05T00:09:32.437Z,3.10
2023-05-05T00:14:35.543Z,3.00
2023-05-05T00:19:38.452Z,3.00
2023-05-05T00:24:41.349Z,3.30
2023-05-05T00:29:44.254Z,2.80
2023-05-05T00:34:47.170Z,2.70
2023-05-05T00:39:50.069Z,3.30
2023-05-05T00:44:52.977Z,3.00
2023-05-05T00:49:56.425Z,3.00
2023-05-05T00:54:59.671Z,4.20
2023-05-05T01:00:03.181Z,13.80
2023-05-05T01:05:08.891Z,15.30
2023-05-05T01:10:27.033Z,6.60
2023-05-05T01:15:49.043Z,4.10
2023-05-05T01:21:10.971Z,3.30
2023-05-05T01:26:59.422Z,3.20
2023-05-05T01:32:07.275Z,3.10
2023-05-05T01:37:37.060Z,3.50
2023-05-05T01:42:43.641Z,3.60
2023-05-05T01:47:47.851Z,3.40
2023-05-05T01:52:52.917Z,9.30
2023-05-05T01:57:58.831Z,7.50
2023-05-05T02:03:04.602Z,6.70
2023-05-05T02:08:09.765Z,5.20
2023-05-05T02:13:13.338Z,4.60
2023-05-05T02:18:18.134Z,4.40
2023-05-05T02:23:21.572Z,3.20
2023-05-05T02:29:04.221Z,3.50
2023-05-05T02:34:08.193Z,3.60
2023-05-05T02:39:14.989Z,3.20
2023-05-05T02:44:20.686Z,2.50
2023-05-05T02:49:23.691Z,2.90
2023-05-05T02:54:27.468Z,2.60
2023-05-05T02:59:59.392Z,2.80
2023-05-05T03:05:17.402Z,2.80
2023-05-05T03:10:23.222Z,2.70
2023-05-05T03:15:31.301Z,2.70
2023-05-05T03:20:35.132Z,2.70
2023-05-05T03:25:48.528Z,3.10
2023-05-05T03:30:52.187Z,2.90
2023-05-05T03:35:55.177Z,3.30
2023-05-05T03:41:02.304Z,2.80
2023-05-05T03:46:05.787Z,2.60
2023-05-05T03:51:09.037Z,2.50
2023-05-05T03:56:12.009Z,2.40
2023-05-05T04:01:15.305Z,2.80
2023-05-05T04:06:18.209Z,2.60
2023-05-05T04:11:21.632Z,2.40
2023-05-05T04:16:24.660Z,3.20
2023-05-05T04:21:27.741Z,2.30
2023-05-05T04:26:30.647Z,3.00
2023-05-05T04:31:33.577Z,3.10
2023-05-05T04:36:36.456Z,2.60
2023-05-05T04:41:39.361Z,2.30
2023-05-05T04:46:43.005Z,2.60
2023-05-05T04:51:46.723Z,2.70
2023-05-05T04:56:49.916Z,2.80
2023-05-05T05:01:53.046Z,3.30
2023-05-05T05:06:58.973Z,2.30
2023-05-05T05:12:03.240Z,3.10
2023-05-05T05:17:06.746Z,3.10
2023-05-05T05:22:09.670Z,2.80
2023-05-05T05:27:12.568Z,2.80
2023-05-05T05:32:15.839Z,2.70
2023-05-05T05:37:18.877Z,2.70
2023-05-05T05:42:21.787Z,2.80
2023-05-05T05:47:25.577Z,2.80
2023-05-05T05:52:28.412Z,2.60
2023-05-05T05:57:31.540Z,3.00
2023-05-05T06:02:34.454Z,3.30
2023-05-05T06:07:37.747Z,3.00
2023-05-05T06:12:40.658Z,2.40
2023-05-05T06:17:43.677Z,2.70
2023-05-05T06:22:46.651Z,4.20
2023-05-05T06:27:49.868Z,3.80
2023-05-05T06:32:54.489Z,3.00
2023-05-05T06:37:57.624Z,2.70
2023-05-05T06:43:00.527Z,2.80
2023-05-05T06:48:03.488Z,2.90
2023-05-05T06:53:06.649Z,2.40
2023-05-05T06:58:10.155Z,2.20
2023-05-05T07:03:13.739Z,2.40
2023-05-05T07:08:16.689Z,2.00
2023-05-05T07:13:20.153Z,2.00
2023-05-05T07:18:23.099Z,2.10
2023-05-05T07:23:26.008Z,2.10
2023-05-05T07:28:28.921Z,2.30
2023-05-05T07:33:31.716Z,3.00
2023-05-05T07:38:34.720Z,1.90
2023-05-05T07:43:39.614Z,2.40
2023-05-05T07:48:42.603Z,2.50
2023-05-05T07:53:45.582Z,1.90
2023-05-05T07:58:49.006Z,2.30
2023-05-05T08:03:52.179Z,2.10
2023-05-05T08:08:56.034Z,1.90
2023-05-05T08:13:59.584Z,2.20
2023-05-05T08:19:02.945Z,1.80
2023-05-05T08:24:06.463Z,2.10
2023-05-05T08:29:09.502Z,1.90
2023-05-05T08:34:12.379Z,2.00
2023-05-05T08:39:15.409Z,1.80
2023-05-05T08:44:18.531Z,2.20
2023-05-05T08:49:22.720Z,2.20
2023-05-05T08:54:31.148Z,1.90
2023-05-05T08:59:36.086Z,2.50
2023-05-05T09:04:39.413Z,1.80
2023-05-05T09:09:42.351Z,2.10
2023-05-05T09:15:02.252Z,1.60
2023-05-05T09:20:08.239Z,1.70
2023-05-05T09:25:15.233Z,1.80
2023-05-05T09:30:24.558Z,2.10
2023-05-05T09:35:27.502Z,2.40
2023-05-05T09:40:45.587Z,2.20
2023-05-05T09:45:49.480Z,1.90
2023-05-05T09:50:53.386Z,1.90
2023-05-05T09:55:58.171Z,2.00
2023-05-05T10:01:01.415Z,2.90
2023-05-05T10:06:04.883Z,2.60
2023-05-05T10:11:07.994Z,1.80
2023-05-05T10:16:12.768Z,1.60
2023-05-05T10:21:20.179Z,1.80
2023-05-05T10:26:26.316Z,2.10
2023-05-05T10:31:52.970Z,2.20
2023-05-05T10:36:57.789Z,1.80
2023-05-05T10:42:04.419Z,1.90
2023-05-05T10:47:07.921Z,1.70
2023-05-05T10:52:17.007Z,1.90
2023-05-05T10:57:25.096Z,1.90
2023-05-05T11:02:29.677Z,2.00
2023-05-05T11:07:34.489Z,2.10
2023-05-05T11:12:52.665Z,2.00
2023-05-05T11:17:57.224Z,1.90
2023-05-05T11:23:03.270Z,2.00
2023-05-05T11:28:07.338Z,2.10
2023-05-05T11:33:27.542Z,2.30
2023-05-05T11:38:33.014Z,1.70
2023-05-05T11:43:36.701Z,2.10
2023-05-05T11:48:54.689Z,1.60
2023-05-05T11:53:59.041Z,1.80
2023-05-05T11:59:20.468Z,2.10
2023-05-05T12:04:23.458Z,1.80
2023-05-05T12:09:27.440Z,1.80
2023-05-05T12:14:30.421Z,1.50
2023-05-05T12:19:34.736Z,1.70
2023-05-05T12:24:37.559Z,2.00
2023-05-05T12:29:40.459Z,1.80
2023-05-05T12:34:44.116Z,1.80
2023-05-05T12:39:47.315Z,2.40
2023-05-05T12:44:50.511Z,1.70
2023-05-05T12:49:53.670Z,1.80
2023-05-05T12:54:58.876Z,1.70
2023-05-05T13:00:14.022Z,1.70
2023-05-05T13:05:38.373Z,1.50
2023-05-05T13:10:57.561Z,1.80
2023-05-05T13:16:00.800Z,1.90
2023-05-05T13:21:04.089Z,1.70
2023-05-05T13:26:07.462Z,1.80
2023-05-05T13:31:10.619Z,1.80
2023-05-05T13:36:14.332Z,1.70
2023-05-05T13:41:17.249Z,1.70
2023-05-05T13:46:20.485Z,1.60
2023-05-05T13:51:23.452Z,1.60
2023-05-05T13:56:27.889Z,1.50
2023-05-05T14:01:31.048Z,1.50
2023-05-05T14:06:34.271Z,1.70
2023-05-05T14:11:37.424Z,1.60
2023-05-05T14:16:40.270Z,1.60
2023-05-05T14:21:43.644Z,1.50
2023-05-05T14:26:46.650Z,1.70
2023-05-05T14:31:49.649Z,1.80
2023-05-05T14:36:52.666Z,1.60
2023-05-05T14:41:55.511Z,1.40
2023-05-05T14:46:58.468Z,1.60
2023-05-05T14:52:01.377Z,1.80
2023-05-05T14:57:04.377Z,1.50
2023-05-05T15:02:07.761Z,1.70
2023-05-05T15:07:11.621Z,1.50
2023-05-05T15:12:14.532Z,1.80
2023-05-05T15:17:17.538Z,1.90
2023-05-05T15:22:20.535Z,1.70
2023-05-05T15:27:23.349Z,2.00
2023-05-05T15:32:26.266Z,1.40
2023-05-05T15:37:29.424Z,1.60
2023-05-05T15:42:33.880Z,1.80
2023-05-05T15:47:36.722Z,1.80
2023-05-05T15:52:39.697Z,1.60
2023-05-05T15:57:42.614Z,1.80
2023-05-05T16:02:45.664Z,1.50
2023-05-05T16:07:48.719Z,1.80
2023-05-05T16:12:52.296Z,2.30
2023-05-05T16:17:55.404Z,1.90
2023-05-05T16:22:58.354Z,1.60
2023-05-05T16:28:01.980Z,1.90
2023-05-05T16:33:04.813Z,1.80
2023-05-05T16:38:07.924Z,1.80
2023-05-05T16:43:11.015Z,1.90
2023-05-05T16:48:14.846Z,1.80
2023-05-05T16:53:17.834Z,1.90
2023-05-05T16:58:21.392Z,1.70
2023-05-05T17:03:24.255Z,2.10
2023-05-05T17:08:27.162Z,1.60
2023-05-05T17:13:30.060Z,1.90
2023-05-05T17:18:32.899Z,2.10
2023-05-05T17:23:35.765Z,1.90
2023-05-05T17:28:38.673Z,1.80
2023-05-05T17:33:41.588Z,1.80
2023-05-05T17:38:44.476Z,2.30
2023-05-05T17:43:47.381Z,2.20
2023-05-05T17:48:51.467Z,1.90
2023-05-05T17:53:54.421Z,1.90
2023-05-05T17:58:57.228Z,1.80
2023-05-05T18:04:00.740Z,1.90
2023-05-05T18:09:03.851Z,2.20
2023-05-05T18:14:06.780Z,2.00
2023-05-05T18:19:09.761Z,1.90
2023-05-05T18:29:22.230Z,2.10
2023-05-05T18:34:25.132Z,2.30
2023-05-05T18:39:28.357Z,2.40
2023-05-05T18:44:32.992Z,2.40
2023-05-05T18:49:35.899Z,2.40
2023-05-05T18:54:38.687Z,2.60
2023-05-05T18:59:41.612Z,2.50
2023-05-05T19:04:44.582Z,3.50
2023-05-05T19:09:47.509Z,3.10
2023-05-05T19:14:50.518Z,2.30
2023-05-05T19:19:53.418Z,2.50
2023-05-05T19:24:56.322Z,2.40
2023-05-05T19:29:59.221Z,2.60
2023-05-05T19:35:03.255Z,2.80
2023-05-05T19:40:07.128Z,2.90
2023-05-05T19:45:10.090Z,2.80
2023-05-05T19:50:15.495Z,3.50
2023-05-05T19:55:18.973Z,3.80
2023-05-05T20:00:21.974Z,2.90
2023-05-05T20:05:24.876Z,3.20
2023-05-05T20:10:28.087Z,3.20
2023-05-05T20:15:31.983Z,2.90
2023-05-05T20:20:36.046Z,2.90
2023-05-05T20:25:39.161Z,5.70
2023-05-05T20:30:42.075Z,5.40
2023-05-05T20:35:44.974Z,4.10
2023-05-05T20:40:48.179Z,3.70
2023-05-05T20:45:51.818Z,3.20
2023-05-05T20:50:54.991Z,3.10
2023-05-05T20:55:58.144Z,3.00
2023-05-05T21:01:01.169Z,3.10
2023-05-05T21:06:04.557Z,2.40
2023-05-05T21:11:10.938Z,3.10
2023-05-05T21:16:13.960Z,2.60
2023-05-05T21:21:17.554Z,3.00
2023-05-05T21:26:21.278Z,3.20
2023-05-05T21:31:24.182Z,2.60
2023-05-05T21:36:27.601Z,3.60
2023-05-05T21:41:30.912Z,3.60
2023-05-05T21:46:34.085Z,3.50
2023-05-05T21:51:37.438Z,3.30
2023-05-05T21:56:40.961Z,3.10
2023-05-05T22:01:43.899Z,3.40
2023-05-05T22:06:46.878Z,3.90
2023-05-05T22:11:50.623Z,3.40
2023-05-05T22:16:53.600Z,3.70
2023-05-05T22:21:58.732Z,3.30
2023-05-05T22:27:02.035Z,4.20
2023-05-05T22:32:04.973Z,4.20
2023-05-05T22:37:08.897Z,3.70
2023-05-05T22:42:11.908Z,3.80
2023-05-05T22:47:14.923Z,4.40
2023-05-05T22:52:18.229Z,3.60
2023-05-05T22:57:21.650Z,4.70
2023-05-05T23:02:26.972Z,3.90
2023-05-05T23:07:30.010Z,3.80
2023-05-05T23:12:33.778Z,4.60
2023-05-05T23:17:36.758Z,4.70
2023-05-05T23:22:39.749Z,4.00
2023-05-05T23:27:42.651Z,4.70
2023-05-05T23:32:46.210Z,3.70
2023-05-05T23:37:49.586Z,4.60
2023-05-05T23:42:52.421Z,3.90
2023-05-05T23:47:55.341Z,4.60
2023-05-05T23:52:58.305Z,3.50
2023-05-05T23:58:01.208Z,4.10
